sensor_id;sensor_type;location;lat;lon;timestamp;pressure;altitude;pressure_sealevel;temperature;humidity
80137;BME280;69466;55.948;37.484;2023-10-31T00:01:24;98853.19;;;7.82;86.61
80137;BME280;69466;55.948;37.484;2023-10-31T00:03:51;98857.31;;;7.85;86.18
80137;BME280;69466;55.948;37.484;2023-10-31T00:06:17;98872.44;;;7.92;86.44
80137;BME280;69466;55.948;37.484;2023-10-31T00:08:43;98871.59;;;7.92;86.31
80137;BME280;69466;55.948;37.484;2023-10-31T00:11:09;98870.31;;;7.94;86.10
80137;BME280;69466;55.948;37.484;2023-10-31T00:13:35;98869.66;;;7.99;86.03
80137;BME280;69466;55.948;37.484;2023-10-31T00:16:02;98871.31;;;8.00;85.58
80137;BME280;69466;55.948;37.484;2023-10-31T00:18:28;98867.16;;;7.97;85.84
80137;BME280;69466;55.948;37.484;2023-10-31T00:20:54;98883.78;;;8.01;85.57
80137;BME280;69466;55.948;37.484;2023-10-31T00:23:22;98887.91;;;8.03;85.10
80137;BME280;69466;55.948;37.484;2023-10-31T00:25:48;98892.06;;;8.06;85.32
80137;BME280;69466;55.948;37.484;2023-10-31T00:28:14;98893.47;;;8.09;85.26
80137;BME280;69466;55.948;37.484;2023-10-31T00:30:40;98884.75;;;8.07;85.18
80137;BME280;69466;55.948;37.484;2023-10-31T00:33:06;98884.16;;;8.05;85.42
80137;BME280;69466;55.948;37.484;2023-10-31T00:35:32;98885.38;;;8.09;85.29
80137;BME280;69466;55.948;37.484;2023-10-31T00:37:58;98889.34;;;8.06;85.45
80137;BME280;69466;55.948;37.484;2023-10-31T00:40:26;98897.59;;;8.11;84.91
80137;BME280;69466;55.948;37.484;2023-10-31T00:42:52;98897.00;;;8.09;85.07
80137;BME280;69466;55.948;37.484;2023-10-31T00:45:19;98906.38;;;8.07;85.21
80137;BME280;69466;55.948;37.484;2023-10-31T00:47:45;98912.34;;;8.15;84.81
80137;BME280;69466;55.948;37.484;2023-10-31T00:50:11;98918.34;;;8.17;84.90
80137;BME280;69466;55.948;37.484;2023-10-31T00:52:37;98911.09;;;8.11;84.15
80137;BME280;69466;55.948;37.484;2023-10-31T00:55:04;98927.66;;;8.21;84.59
80137;BME280;69466;55.948;37.484;2023-10-31T00:57:30;98927.91;;;8.20;84.58
80137;BME280;69466;55.948;37.484;2023-10-31T00:59:56;98923.53;;;8.19;84.44
80137;BME280;69466;55.948;37.484;2023-10-31T01:02:22;98933.06;;;8.21;84.20
80137;BME280;69466;55.948;37.484;2023-10-31T01:04:48;98922.09;;;8.16;84.24
80137;BME280;69466;55.948;37.484;2023-10-31T01:07:14;98931.63;;;8.19;84.23
80137;BME280;69466;55.948;37.484;2023-10-31T01:09:43;98923.75;;;8.17;84.45
80137;BME280;69466;55.948;37.484;2023-10-31T01:12:10;98937.69;;;8.14;84.56
80137;BME280;69466;55.948;37.484;2023-10-31T01:14:36;98932.09;;;8.16;84.69
80137;BME280;69466;55.948;37.484;2023-10-31T01:17:03;98941.91;;;8.10;84.25
80137;BME280;69466;55.948;37.484;2023-10-31T01:19:29;98943.13;;;8.14;84.09
80137;BME280;69466;55.948;37.484;2023-10-31T01:21:55;98950.56;;;8.19;84.49
80137;BME280;69466;55.948;37.484;2023-10-31T01:24:21;98963.25;;;8.18;84.20
80137;BME280;69466;55.948;37.484;2023-10-31T01:26:49;98958.28;;;8.15;84.19
80137;BME280;69466;55.948;37.484;2023-10-31T01:29:15;98966.69;;;8.25;84.07
80137;BME280;69466;55.948;37.484;2023-10-31T01:31:41;98974.59;;;8.27;84.18
80137;BME280;69466;55.948;37.484;2023-10-31T01:34:07;98971.13;;;8.20;84.15
80137;BME280;69466;55.948;37.484;2023-10-31T01:36:33;98975.06;;;8.24;84.02
80137;BME280;69466;55.948;37.484;2023-10-31T01:39:03;98984.19;;;8.29;84.01
80137;BME280;69466;55.948;37.484;2023-10-31T01:41:29;98980.22;;;8.25;83.54
80137;BME280;69466;55.948;37.484;2023-10-31T01:43:55;98985.63;;;8.32;84.11
80137;BME280;69466;55.948;37.484;2023-10-31T01:46:21;98980.88;;;8.21;83.57
80137;BME280;69466;55.948;37.484;2023-10-31T01:48:47;98992.31;;;8.23;83.65
80137;BME280;69466;55.948;37.484;2023-10-31T01:51:13;98999.97;;;8.26;84.10
80137;BME280;69466;55.948;37.484;2023-10-31T01:53:39;99009.09;;;8.31;83.93
80137;BME280;69466;55.948;37.484;2023-10-31T01:56:06;99010.34;;;8.29;83.65
80137;BME280;69466;55.948;37.484;2023-10-31T01:58:36;99005.38;;;8.32;83.38
80137;BME280;69466;55.948;37.484;2023-10-31T02:01:04;99001.41;;;8.28;83.33
80137;BME280;69466;55.948;37.484;2023-10-31T02:03:30;99010.16;;;8.30;83.48
80137;BME280;69466;55.948;37.484;2023-10-31T02:05:57;99014.06;;;8.34;83.49
80137;BME280;69466;55.948;37.484;2023-10-31T02:08:24;99009.28;;;8.36;83.37
80137;BME280;69466;55.948;37.484;2023-10-31T02:10:51;98995.38;;;8.26;83.03
80137;BME280;69466;55.948;37.484;2023-10-31T02:13:19;99008.25;;;8.37;82.67
80137;BME280;69466;55.948;37.484;2023-10-31T02:15:46;99021.38;;;8.34;83.08
80137;BME280;69466;55.948;37.484;2023-10-31T02:18:13;99029.25;;;8.35;82.87
80137;BME280;69466;55.948;37.484;2023-10-31T02:20:59;99033.81;;;8.35;82.73
80137;BME280;69466;55.948;37.484;2023-10-31T02:23:26;99031.56;;;8.32;83.18
80137;BME280;69466;55.948;37.484;2023-10-31T02:25:52;99040.44;;;8.39;83.05
80137;BME280;69466;55.948;37.484;2023-10-31T02:28:18;99027.63;;;8.28;82.57
80137;BME280;69466;55.948;37.484;2023-10-31T02:30:44;99040.50;;;8.32;83.10
80137;BME280;69466;55.948;37.484;2023-10-31T02:33:11;99042.38;;;8.32;82.81
80137;BME280;69466;55.948;37.484;2023-10-31T02:35:37;99041.97;;;8.28;82.66
80137;BME280;69466;55.948;37.484;2023-10-31T02:38:03;99042.16;;;8.27;82.93
80137;BME280;69466;55.948;37.484;2023-10-31T02:40:29;99025.84;;;8.15;82.92
80137;BME280;69466;55.948;37.484;2023-10-31T02:42:55;99040.13;;;8.22;83.13
80137;BME280;69466;55.948;37.484;2023-10-31T02:45:21;99038.53;;;8.08;83.06
80137;BME280;69466;55.948;37.484;2023-10-31T02:47:47;99049.34;;;8.08;83.65
80137;BME280;69466;55.948;37.484;2023-10-31T02:50:15;99042.53;;;8.06;83.63
80137;BME280;69466;55.948;37.484;2023-10-31T02:52:41;99057.03;;;8.11;83.07
80137;BME280;69466;55.948;37.484;2023-10-31T02:55:07;99060.78;;;8.10;83.04
80137;BME280;69466;55.948;37.484;2023-10-31T02:57:34;99066.41;;;8.09;83.46
80137;BME280;69466;55.948;37.484;2023-10-31T03:00:00;99060.25;;;7.95;83.30
80137;BME280;69466;55.948;37.484;2023-10-31T03:02:29;99064.72;;;8.08;83.51
80137;BME280;69466;55.948;37.484;2023-10-31T03:04:56;99068.06;;;8.10;83.12
80137;BME280;69466;55.948;37.484;2023-10-31T03:07:22;99064.16;;;8.06;83.13
80137;BME280;69466;55.948;37.484;2023-10-31T03:09:48;99063.97;;;8.00;83.40
80137;BME280;69466;55.948;37.484;2023-10-31T03:12:14;99070.41;;;7.99;83.62
80137;BME280;69466;55.948;37.484;2023-10-31T03:14:40;99075.81;;;7.99;83.33
80137;BME280;69466;55.948;37.484;2023-10-31T03:17:06;99072.91;;;7.94;83.51
80137;BME280;69466;55.948;37.484;2023-10-31T03:19:32;99073.31;;;7.98;83.26
80137;BME280;69466;55.948;37.484;2023-10-31T03:22:08;99086.53;;;8.13;83.19
80137;BME280;69466;55.948;37.484;2023-10-31T03:24:34;99077.41;;;8.07;83.07
80137;BME280;69466;55.948;37.484;2023-10-31T03:27:00;99094.25;;;8.09;82.70
80137;BME280;69466;55.948;37.484;2023-10-31T03:29:26;99095.91;;;8.10;83.16
80137;BME280;69466;55.948;37.484;2023-10-31T03:31:52;99090.94;;;8.07;82.85
80137;BME280;69466;55.948;37.484;2023-10-31T03:34:18;99103.19;;;8.10;82.57
80137;BME280;69466;55.948;37.484;2023-10-31T03:36:44;99099.03;;;8.07;83.21
80137;BME280;69466;55.948;37.484;2023-10-31T03:39:10;99100.66;;;8.15;82.72
80137;BME280;69466;55.948;37.484;2023-10-31T03:41:35;99101.91;;;8.12;82.80
80137;BME280;69466;55.948;37.484;2023-10-31T03:44:01;99113.56;;;8.13;82.92
80137;BME280;69466;55.948;37.484;2023-10-31T03:46:27;99107.31;;;8.12;82.48
80137;BME280;69466;55.948;37.484;2023-10-31T03:48:53;99109.63;;;8.09;82.45
80137;BME280;69466;55.948;37.484;2023-10-31T03:51:19;99120.41;;;8.15;82.29
80137;BME280;69466;55.948;37.484;2023-10-31T03:53:45;99117.28;;;8.12;81.80
80137;BME280;69466;55.948;37.484;2023-10-31T03:56:11;99117.75;;;8.09;81.85
80137;BME280;69466;55.948;37.484;2023-10-31T03:58:36;99122.13;;;8.03;81.93
80137;BME280;69466;55.948;37.484;2023-10-31T04:01:03;99124.22;;;8.01;82.16
80137;BME280;69466;55.948;37.484;2023-10-31T04:03:28;99131.72;;;7.99;82.24
80137;BME280;69466;55.948;37.484;2023-10-31T04:05:54;99134.41;;;7.99;82.34
80137;BME280;69466;55.948;37.484;2023-10-31T04:08:20;99117.41;;;7.92;82.39
80137;BME280;69466;55.948;37.484;2023-10-31T04:10:46;99132.75;;;7.98;82.71
80137;BME280;69466;55.948;37.484;2023-10-31T04:13:12;99144.38;;;7.98;82.94
80137;BME280;69466;55.948;37.484;2023-10-31T04:15:38;99142.72;;;7.97;82.64
80137;BME280;69466;55.948;37.484;2023-10-31T04:18:04;99140.25;;;7.96;83.21
80137;BME280;69466;55.948;37.484;2023-10-31T04:20:31;99145.22;;;7.99;83.02
80137;BME280;69466;55.948;37.484;2023-10-31T04:22:56;99134.66;;;7.91;82.79
80137;BME280;69466;55.948;37.484;2023-10-31T04:25:22;99147.91;;;7.99;83.24
80137;BME280;69466;55.948;37.484;2023-10-31T04:27:49;99149.13;;;8.03;82.97
80137;BME280;69466;55.948;37.484;2023-10-31T04:30:15;99152.88;;;8.02;82.94
80137;BME280;69466;55.948;37.484;2023-10-31T04:32:41;99152.50;;;7.98;83.30
80137;BME280;69466;55.948;37.484;2023-10-31T04:35:07;99163.94;;;8.00;82.53
80137;BME280;69466;55.948;37.484;2023-10-31T04:37:33;99144.44;;;7.85;81.79
80137;BME280;69466;55.948;37.484;2023-10-31T04:40:00;99149.84;;;7.85;81.92
80137;BME280;69466;55.948;37.484;2023-10-31T04:42:26;99156.50;;;7.83;82.29
80137;BME280;69466;55.948;37.484;2023-10-31T04:44:52;99145.06;;;7.81;82.59
80137;BME280;69466;55.948;37.484;2023-10-31T04:47:18;99163.94;;;7.94;83.25
80137;BME280;69466;55.948;37.484;2023-10-31T04:49:44;99149.84;;;7.92;82.34
80137;BME280;69466;55.948;37.484;2023-10-31T04:52:09;99152.28;;;7.93;82.83
80137;BME280;69466;55.948;37.484;2023-10-31T04:54:36;99164.13;;;7.99;82.20
80137;BME280;69466;55.948;37.484;2023-10-31T04:57:03;99151.69;;;7.91;82.19
80137;BME280;69466;55.948;37.484;2023-10-31T04:59:29;99177.84;;;7.97;81.97
80137;BME280;69466;55.948;37.484;2023-10-31T05:01:57;99171.44;;;7.92;81.26
80137;BME280;69466;55.948;37.484;2023-10-31T05:04:23;99183.47;;;7.96;81.93
80137;BME280;69466;55.948;37.484;2023-10-31T05:06:49;99182.25;;;7.92;81.75
80137;BME280;69466;55.948;37.484;2023-10-31T05:09:15;99182.06;;;7.87;81.34
80137;BME280;69466;55.948;37.484;2023-10-31T05:11:41;99185.34;;;7.95;81.79
80137;BME280;69466;55.948;37.484;2023-10-31T05:14:08;99192.59;;;8.01;82.09
80137;BME280;69466;55.948;37.484;2023-10-31T05:16:42;99199.00;;;8.07;82.25
80137;BME280;69466;55.948;37.484;2023-10-31T05:19:09;99190.25;;;8.12;82.53
80137;BME280;69466;55.948;37.484;2023-10-31T05:21:35;99180.53;;;8.11;82.70
80137;BME280;69466;55.948;37.484;2023-10-31T05:24:02;99186.28;;;8.21;82.52
80137;BME280;69466;55.948;37.484;2023-10-31T05:26:28;99193.75;;;8.32;82.17
80137;BME280;69466;55.948;37.484;2023-10-31T05:28:56;99185.00;;;8.30;82.17
80137;BME280;69466;55.948;37.484;2023-10-31T05:31:24;99206.19;;;8.39;82.17
80137;BME280;69466;55.948;37.484;2023-10-31T05:33:51;99203.91;;;8.43;81.61
80137;BME280;69466;55.948;37.484;2023-10-31T05:36:22;99199.94;;;8.39;80.60
80137;BME280;69466;55.948;37.484;2023-10-31T05:38:49;99215.09;;;8.47;80.19
80137;BME280;69466;55.948;37.484;2023-10-31T05:41:15;99216.31;;;8.51;80.01
80137;BME280;69466;55.948;37.484;2023-10-31T05:43:42;99211.34;;;8.48;78.97
80137;BME280;69466;55.948;37.484;2023-10-31T05:46:08;99218.00;;;8.52;79.28
80137;BME280;69466;55.948;37.484;2023-10-31T05:48:44;99230.88;;;8.56;79.62
80137;BME280;69466;55.948;37.484;2023-10-31T05:51:16;99235.00;;;8.59;78.51
80137;BME280;69466;55.948;37.484;2023-10-31T05:53:46;99243.69;;;8.67;79.49
80137;BME280;69466;55.948;37.484;2023-10-31T05:56:13;99246.41;;;8.67;79.10
80137;BME280;69466;55.948;37.484;2023-10-31T05:58:40;99250.94;;;8.73;79.08
80137;BME280;69466;55.948;37.484;2023-10-31T06:01:07;99246.31;;;8.80;78.66
80137;BME280;69466;55.948;37.484;2023-10-31T06:03:37;99249.38;;;8.90;79.31
80137;BME280;69466;55.948;37.484;2023-10-31T06:06:06;99240.66;;;8.88;79.21
80137;BME280;69466;55.948;37.484;2023-10-31T06:08:32;99250.75;;;9.06;78.87
80137;BME280;69466;55.948;37.484;2023-10-31T06:10:58;99247.00;;;9.07;79.31
80137;BME280;69466;55.948;37.484;2023-10-31T06:13:24;99244.78;;;9.22;78.86
80137;BME280;69466;55.948;37.484;2023-10-31T06:15:54;99254.91;;;9.33;79.37
80137;BME280;69466;55.948;37.484;2023-10-31T06:18:20;99257.34;;;9.42;77.99
80137;BME280;69466;55.948;37.484;2023-10-31T06:20:46;99260.91;;;9.42;78.43
80137;BME280;69466;55.948;37.484;2023-10-31T06:23:15;99276.31;;;9.42;78.16
80137;BME280;69466;55.948;37.484;2023-10-31T06:25:41;99261.16;;;9.34;77.83
80137;BME280;69466;55.948;37.484;2023-10-31T06:28:07;99278.38;;;9.40;78.19
80137;BME280;69466;55.948;37.484;2023-10-31T06:30:33;99276.34;;;9.35;77.90
80137;BME280;69466;55.948;37.484;2023-10-31T06:32:59;99278.38;;;9.40;77.94
80137;BME280;69466;55.948;37.484;2023-10-31T06:35:26;99281.72;;;9.42;78.47
80137;BME280;69466;55.948;37.484;2023-10-31T06:37:54;99280.69;;;9.43;78.92
80137;BME280;69466;55.948;37.484;2023-10-31T06:40:22;99290.38;;;9.57;78.20
80137;BME280;69466;55.948;37.484;2023-10-31T06:42:48;99273.94;;;9.52;78.39
80137;BME280;69466;55.948;37.484;2023-10-31T06:45:15;99272.22;;;9.57;78.82
80137;BME280;69466;55.948;37.484;2023-10-31T06:47:40;99287.91;;;9.73;77.85
80137;BME280;69466;55.948;37.484;2023-10-31T06:50:08;99276.06;;;9.68;78.90
80137;BME280;69466;55.948;37.484;2023-10-31T06:52:34;99292.66;;;9.78;78.50
80137;BME280;69466;55.948;37.484;2023-10-31T06:55:00;99258.06;;;9.55;79.22
80137;BME280;69466;55.948;37.484;2023-10-31T06:57:26;99293.84;;;9.89;79.08
80137;BME280;69466;55.948;37.484;2023-10-31T06:59:52;99282.63;;;9.85;78.62
80137;BME280;69466;55.948;37.484;2023-10-31T07:02:18;99308.47;;;10.06;78.41
80137;BME280;69466;55.948;37.484;2023-10-31T07:04:44;99310.56;;;10.04;78.43
80137;BME280;69466;55.948;37.484;2023-10-31T07:07:10;99327.97;;;10.14;78.50
80137;BME280;69466;55.948;37.484;2023-10-31T07:09:39;99303.66;;;10.08;78.25
80137;BME280;69466;55.948;37.484;2023-10-31T07:12:07;99321.84;;;10.26;78.06
80137;BME280;69466;55.948;37.484;2023-10-31T07:14:35;99324.78;;;10.24;78.23
80137;BME280;69466;55.948;37.484;2023-10-31T07:17:01;99312.00;;;10.06;78.49
80137;BME280;69466;55.948;37.484;2023-10-31T07:19:30;99337.97;;;10.20;78.28
80137;BME280;69466;55.948;37.484;2023-10-31T07:21:56;99336.31;;;10.19;78.94
80137;BME280;69466;55.948;37.484;2023-10-31T07:24:22;99321.34;;;10.10;78.83
80137;BME280;69466;55.948;37.484;2023-10-31T07:26:48;99352.28;;;10.28;78.55
80137;BME280;69466;55.948;37.484;2023-10-31T07:29:22;99342.09;;;10.23;78.66
80137;BME280;69466;55.948;37.484;2023-10-31T07:31:48;99353.72;;;10.30;78.76
80137;BME280;69466;55.948;37.484;2023-10-31T07:34:14;99365.63;;;10.29;78.67
80137;BME280;69466;55.948;37.484;2023-10-31T07:36:42;99367.66;;;10.34;78.73
80137;BME280;69466;55.948;37.484;2023-10-31T07:39:07;99370.66;;;10.26;78.60
80137;BME280;69466;55.948;37.484;2023-10-31T07:41:33;99364.78;;;10.29;79.12
80137;BME280;69466;55.948;37.484;2023-10-31T07:44:02;99378.97;;;10.31;78.92
80137;BME280;69466;55.948;37.484;2023-10-31T07:46:28;99374.59;;;10.30;79.04
80137;BME280;69466;55.948;37.484;2023-10-31T07:48:54;99373.53;;;10.31;79.65
80137;BME280;69466;55.948;37.484;2023-10-31T07:51:20;99368.47;;;10.16;79.71
80137;BME280;69466;55.948;37.484;2023-10-31T07:53:46;99379.50;;;10.14;79.71
80137;BME280;69466;55.948;37.484;2023-10-31T07:56:16;99371.44;;;10.08;79.88
80137;BME280;69466;55.948;37.484;2023-10-31T07:58:43;99367.59;;;9.91;80.07
80137;BME280;69466;55.948;37.484;2023-10-31T08:01:09;99398.59;;;10.01;80.39
80137;BME280;69466;55.948;37.484;2023-10-31T08:03:37;99373.47;;;9.88;80.27
80137;BME280;69466;55.948;37.484;2023-10-31T08:06:07;99377.88;;;9.82;80.43
80137;BME280;69466;55.948;37.484;2023-10-31T08:08:33;99403.00;;;9.96;80.49
80137;BME280;69466;55.948;37.484;2023-10-31T08:11:11;99399.88;;;9.99;80.37
80137;BME280;69466;55.948;37.484;2023-10-31T08:13:40;99391.41;;;9.89;80.37
80137;BME280;69466;55.948;37.484;2023-10-31T08:16:07;99403.38;;;9.99;80.46
80137;BME280;69466;55.948;37.484;2023-10-31T08:18:33;99403.84;;;9.96;80.02
80137;BME280;69466;55.948;37.484;2023-10-31T08:21:03;99388.91;;;9.87;80.04
80137;BME280;69466;55.948;37.484;2023-10-31T08:23:29;99392.72;;;10.04;80.00
80137;BME280;69466;55.948;37.484;2023-10-31T08:25:56;99399.03;;;10.23;79.91
80137;BME280;69466;55.948;37.484;2023-10-31T08:28:22;99386.53;;;10.22;79.27
80137;BME280;69466;55.948;37.484;2023-10-31T08:30:48;99371.56;;;10.19;79.22
80137;BME280;69466;55.948;37.484;2023-10-31T08:33:13;99392.59;;;10.42;78.69
80137;BME280;69466;55.948;37.484;2023-10-31T08:35:40;99386.31;;;10.48;78.03
80137;BME280;69466;55.948;37.484;2023-10-31T08:38:07;99385.09;;;10.62;77.78
80137;BME280;69466;55.948;37.484;2023-10-31T08:40:33;99401.81;;;10.96;77.15
80137;BME280;69466;55.948;37.484;2023-10-31T08:42:59;99409.81;;;11.09;76.56
80137;BME280;69466;55.948;37.484;2023-10-31T08:45:26;99409.50;;;11.17;76.02
80137;BME280;69466;55.948;37.484;2023-10-31T08:47:52;99406.16;;;11.33;75.37
80137;BME280;69466;55.948;37.484;2023-10-31T08:50:18;99403.91;;;11.30;75.16
80137;BME280;69466;55.948;37.484;2023-10-31T08:52:45;99406.56;;;11.19;74.74
80137;BME280;69466;55.948;37.484;2023-10-31T08:55:11;99400.16;;;11.13;75.16
80137;BME280;69466;55.948;37.484;2023-10-31T08:57:37;99392.78;;;11.02;75.23
80137;BME280;69466;55.948;37.484;2023-10-31T09:00:07;99370.19;;;10.90;75.25
80137;BME280;69466;55.948;37.484;2023-10-31T09:02:33;99406.69;;;11.24;75.06
80137;BME280;69466;55.948;37.484;2023-10-31T09:04:59;99402.47;;;11.28;74.59
80137;BME280;69466;55.948;37.484;2023-10-31T09:07:26;99416.81;;;11.35;74.29
80137;BME280;69466;55.948;37.484;2023-10-31T09:09:52;99415.81;;;11.29;74.43
80137;BME280;69466;55.948;37.484;2023-10-31T09:12:18;99420.28;;;11.24;74.78
80137;BME280;69466;55.948;37.484;2023-10-31T09:14:44;99416.91;;;11.10;74.46
80137;BME280;69466;55.948;37.484;2023-10-31T09:17:10;99424.16;;;11.16;74.64
80137;BME280;69466;55.948;37.484;2023-10-31T09:19:36;99418.34;;;11.13;74.96
80137;BME280;69466;55.948;37.484;2023-10-31T09:22:04;99416.31;;;11.08;74.47
80137;BME280;69466;55.948;37.484;2023-10-31T09:24:30;99421.75;;;10.90;74.76
80137;BME280;69466;55.948;37.484;2023-10-31T09:26:56;99432.09;;;10.99;75.03
80137;BME280;69466;55.948;37.484;2023-10-31T09:29:22;99426.66;;;10.99;74.71
80137;BME280;69466;55.948;37.484;2023-10-31T09:31:48;99425.56;;;11.00;74.62
80137;BME280;69466;55.948;37.484;2023-10-31T09:36:35;99406.88;;;10.92;74.52
80137;BME280;69466;55.948;37.484;2023-10-31T09:39:01;99419.31;;;11.00;74.14
80137;BME280;69466;55.948;37.484;2023-10-31T09:41:27;99418.09;;;11.14;74.21
80137;BME280;69466;55.948;37.484;2023-10-31T09:43:53;99411.72;;;11.08;74.04
80137;BME280;69466;55.948;37.484;2023-10-31T09:46:21;99405.34;;;11.15;73.87
80137;BME280;69466;55.948;37.484;2023-10-31T09:48:50;99420.13;;;11.19;73.82
80137;BME280;69466;55.948;37.484;2023-10-31T09:51:17;99409.44;;;11.05;73.69
80137;BME280;69466;55.948;37.484;2023-10-31T09:53:45;99416.31;;;11.08;73.93
80137;BME280;69466;55.948;37.484;2023-10-31T09:56:11;99409.00;;;11.08;73.89
80137;BME280;69466;55.948;37.484;2023-10-31T09:58:37;99415.69;;;11.06;74.03
80137;BME280;69466;55.948;37.484;2023-10-31T10:01:05;99406.88;;;11.10;73.92
80137;BME280;69466;55.948;37.484;2023-10-31T10:03:31;99398.41;;;11.19;73.88
80137;BME280;69466;55.948;37.484;2023-10-31T10:05:57;99415.09;;;11.22;73.67
80137;BME280;69466;55.948;37.484;2023-10-31T10:08:24;99410.78;;;11.15;73.68
80137;BME280;69466;55.948;37.484;2023-10-31T10:10:51;99416.63;;;11.18;73.62
80137;BME280;69466;55.948;37.484;2023-10-31T10:13:18;99415.47;;;11.26;73.21
80137;BME280;69466;55.948;37.484;2023-10-31T10:15:47;99410.75;;;11.33;73.48
80137;BME280;69466;55.948;37.484;2023-10-31T10:18:29;99427.34;;;11.43;72.96
80137;BME280;69466;55.948;37.484;2023-10-31T10:20:59;99395.47;;;11.20;73.12
80137;BME280;69466;55.948;37.484;2023-10-31T10:23:26;99423.56;;;11.44;72.58
80137;BME280;69466;55.948;37.484;2023-10-31T10:25:56;99422.66;;;11.50;72.63
80137;BME280;69466;55.948;37.484;2023-10-31T10:28:23;99409.88;;;11.50;72.35
80137;BME280;69466;55.948;37.484;2023-10-31T10:30:53;99411.59;;;11.63;71.69
80137;BME280;69466;55.948;37.484;2023-10-31T10:33:20;99400.72;;;11.63;72.12
80137;BME280;69466;55.948;37.484;2023-10-31T10:35:47;99412.78;;;11.67;71.96
80137;BME280;69466;55.948;37.484;2023-10-31T10:38:15;99407.94;;;11.69;72.37
80137;BME280;69466;55.948;37.484;2023-10-31T10:40:46;99418.41;;;11.72;71.61
80137;BME280;69466;55.948;37.484;2023-10-31T10:45:44;99412.63;;;11.80;71.54
80137;BME280;69466;55.948;37.484;2023-10-31T10:48:14;99409.31;;;11.78;71.52
80137;BME280;69466;55.948;37.484;2023-10-31T10:50:45;99393.13;;;11.83;71.42
80137;BME280;69466;55.948;37.484;2023-10-31T10:53:23;99389.72;;;11.88;71.23
80137;BME280;69466;55.948;37.484;2023-10-31T10:56:11;99382.16;;;11.90;71.26
80137;BME280;69466;55.948;37.484;2023-10-31T10:58:41;99388.44;;;11.90;70.83
80137;BME280;69466;55.948;37.484;2023-10-31T11:01:10;99382.84;;;11.85;70.79
80137;BME280;69466;55.948;37.484;2023-10-31T11:03:37;99385.44;;;11.80;70.89
80137;BME280;69466;55.948;37.484;2023-10-31T11:06:08;99379.25;;;11.73;70.89
80137;BME280;69466;55.948;37.484;2023-10-31T11:08:36;99391.47;;;11.82;70.68
80137;BME280;69466;55.948;37.484;2023-10-31T11:11:05;99391.22;;;11.72;70.59
80137;BME280;69466;55.948;37.484;2023-10-31T11:13:32;99396.31;;;11.80;70.76
80137;BME280;69466;55.948;37.484;2023-10-31T11:16:06;99390.28;;;11.78;70.61
80137;BME280;69466;55.948;37.484;2023-10-31T11:18:34;99388.38;;;11.79;70.49
80137;BME280;69466;55.948;37.484;2023-10-31T11:21:01;99397.38;;;11.79;70.60
80137;BME280;69466;55.948;37.484;2023-10-31T11:23:27;99398.34;;;11.85;70.43
80137;BME280;69466;55.948;37.484;2023-10-31T11:25:57;99381.53;;;11.76;70.53
80137;BME280;69466;55.948;37.484;2023-10-31T11:28:24;99386.63;;;11.84;70.53
80137;BME280;69466;55.948;37.484;2023-10-31T11:30:53;99384.84;;;11.78;70.71
80137;BME280;69466;55.948;37.484;2023-10-31T11:33:24;99368.31;;;11.80;70.53
80137;BME280;69466;55.948;37.484;2023-10-31T11:35:51;99379.91;;;11.87;70.26
80137;BME280;69466;55.948;37.484;2023-10-31T11:38:30;99385.44;;;11.80;70.28
80137;BME280;69466;55.948;37.484;2023-10-31T11:40:59;99380.53;;;11.71;70.05
80137;BME280;69466;55.948;37.484;2023-10-31T11:46:04;99398.50;;;11.72;70.28
80137;BME280;69466;55.948;37.484;2023-10-31T11:48:53;99402.75;;;11.68;70.83
80137;BME280;69466;55.948;37.484;2023-10-31T11:51:23;99388.06;;;11.57;70.93
80137;BME280;69466;55.948;37.484;2023-10-31T11:53:49;99397.53;;;11.66;70.73
80137;BME280;69466;55.948;37.484;2023-10-31T11:56:22;99350.09;;;11.39;70.41
80137;BME280;69466;55.948;37.484;2023-10-31T11:58:56;99381.72;;;11.63;70.24
80137;BME280;69466;55.948;37.484;2023-10-31T12:01:25;99380.53;;;11.59;70.21
80137;BME280;69466;55.948;37.484;2023-10-31T12:03:51;99404.66;;;11.67;70.39
80137;BME280;69466;55.948;37.484;2023-10-31T12:06:17;99398.97;;;11.69;70.45
80137;BME280;69466;55.948;37.484;2023-10-31T12:08:46;99386.66;;;11.66;70.23
80137;BME280;69466;55.948;37.484;2023-10-31T12:11:17;99374.13;;;11.65;70.03
80137;BME280;69466;55.948;37.484;2023-10-31T12:13:54;99384.56;;;11.68;70.18
80137;BME280;69466;55.948;37.484;2023-10-31T12:16:24;99379.94;;;11.69;69.94
80137;BME280;69466;55.948;37.484;2023-10-31T12:18:59;99410.84;;;11.74;70.17
80137;BME280;69466;55.948;37.484;2023-10-31T12:21:43;99399.22;;;11.67;70.71
80137;BME280;69466;55.948;37.484;2023-10-31T12:24:13;99394.47;;;11.63;70.74
80137;BME280;69466;55.948;37.484;2023-10-31T12:26:40;99403.31;;;11.58;71.28
80137;BME280;69466;55.948;37.484;2023-10-31T12:29:12;99358.56;;;11.31;71.01
80137;BME280;69466;55.948;37.484;2023-10-31T12:31:43;99360.13;;;11.38;71.31
80137;BME280;69466;55.948;37.484;2023-10-31T12:34:14;99366.59;;;11.37;71.27
80137;BME280;69466;55.948;37.484;2023-10-31T12:36:40;99380.66;;;11.34;71.28
80137;BME280;69466;55.948;37.484;2023-10-31T12:39:09;99377.09;;;11.34;71.58
80137;BME280;69466;55.948;37.484;2023-10-31T12:41:38;99378.28;;;11.26;71.64
80137;BME280;69466;55.948;37.484;2023-10-31T12:44:06;99362.16;;;11.13;71.96
80137;BME280;69466;55.948;37.484;2023-10-31T12:46:33;99355.81;;;11.01;72.51
80137;BME280;69466;55.948;37.484;2023-10-31T12:49:04;99376.41;;;11.08;72.58
80137;BME280;69466;55.948;37.484;2023-10-31T12:51:32;99374.38;;;11.04;72.69
80137;BME280;69466;55.948;37.484;2023-10-31T12:53:58;99374.00;;;11.00;72.82
80137;BME280;69466;55.948;37.484;2023-10-31T12:56:37;99372.88;;;10.90;73.10
80137;BME280;69466;55.948;37.484;2023-10-31T12:59:08;99364.44;;;10.80;73.23
80137;BME280;69466;55.948;37.484;2023-10-31T13:01:44;99372.50;;;10.86;73.43
80137;BME280;69466;55.948;37.484;2023-10-31T13:04:30;99378.38;;;10.83;73.46